Tiempo atmosférico en la estación meteorológica de Jaca, Huesca (830 m.)



Fecha
DESCASC
Temp. máxima en grados centígrados (hora)
DESCASC
Temp. mínima en grados centígrados (hora)
DESCASC
Temp. media en grados centígrados
DESCASC
Racha de viento máxima en m/sg (hora)
DESCASC
Velocidad máxima media en intervalos de 10 minutos(hora)
DESCASC
Precipitaciones diarias en mm
DESCASC
Precipitaciones de 00:00 a 06:00 en mm
DESCASC
Precipitaciones de 06:00 a 12:00 en mm
DESCASC
Precipitaciones de 12:00 a 18:00 en mm
DESCASC
Precipitaciones de 18:00 a 24:00 en mm
DESCASC
08-12-2019 10.8 (13:30) -0.2 (09:00) 5.3 6.94 (22:10) 4.17 (09:00) 0.8 0 0 0.8 0
07-12-2019 11.7 (14:30) 0 (08:30) 5.8 6.11 (19:20) 3.89 (19:20) 0 0 0 0 0
06-12-2019 12.7 (15:20) 1.1 (23:40) 6.9 6.39 (20:00) 3.61 (20:00) 0 0 0 0 0
05-12-2019 10.8 (14:50) 0.7 (00:00) 5.8 5.28 (06:20) 3.33 (06:30) 0 0 0 0 0
04-12-2019 7.6 (14:30) -1.2 (-00:0) 3.2 6.67 (07:20) 3.33 (04:50) 0 0 0 0 0
03-12-2019 8.5 (15:30) -3.4 (-00:0) 2.5 5.28 (22:20) 2.78 (22:20) 0 0 0 0 0
02-12-2019 9.8 (15:00) -1.3 (-00:0) 4.3 7.22 (17:30) 3.89 (17:30) 0 0 0 0 0
01-12-2019 11 (15:00) 0.4 (00:00) 5.7 6.94 (00:40) 3.89 (07:30) 0 0 0 0 0
30-11-2019 10.9 (18:50) 0.5 (00:00) 5.7 10 (20:10) 4.17 (07:30) 6 0 0 0 6
29-11-2019 12 (13:30) 1.7 (00:00) 6.9 8.61 (15:40) 4.17 (19:20) 1.6 1.5 0.1 0 0
28-11-2019 10 (13:10) 5.3 (00:00) 7.7 4.72 (18:10) 2.5 (18:10) 4.5 0.7 0 0.7 3.1
27-11-2019 11.2 (00:40) 4.4 (00:00) 7.8 10.28 (04:50) 4.72 (05:00) 8.9 2.8 0 0.1 6
26-11-2019 13 (16:40) 2.6 (00:00) 7.8 6.39 (05:10) 3.61 (05:10) 4 0 0 0 4
25-11-2019 11.7 (14:20) 2.2 (00:00) 6.9 7.5 (20:30) 4.72 (20:30) 0.4 0.3 0.1 0 0
24-11-2019 8.7 (14:20) 1.6 (00:00) 5.1 10.83 (13:10) 5 (13:10) 0.4 0 0 0 0.4
23-11-2019 5.5 (00:00) 1.5 (00:00) 3.5 11.67 (07:40) 5.28 (07:40) 10.3 0.3 8.6 1.4 0
22-11-2019 7.3 (11:00) 2.1 (00:00) 4.7 11.94 (12:40) 4.72 (22:20) 18.5 0 0.1 7.5 10.9
21-11-2019 7.4 (14:00) 1.7 (00:00) 4.6 6.11 (21:50) 2.78 (21:50) 0.1 0.1 0 0 0
20-11-2019 8.7 (14:30) -2.3 (-00:0) 3.2 6.39 (09:00) 3.61 (00:30) 0 0 0 0 0
19-11-2019 8.4 (14:30) -4.6 (-00:0) 1.9 6.67 (18:10) 3.61 (18:50) 0 0 0 0 0
18-11-2019 5.4 (13:50) -2.4 (-00:0) 1.5 16.67 (17:00) 8.61 (17:20) 0.4 0.4 0 0 0
17-11-2019 2.7 (14:40) -1.1 (-00:0) 0.8 7.22 (03:00) 3.89 (02:40) 1.5 0 0 1.4 0.1
16-11-2019 0 (16:20) -4.1 (-00:0) -2 4.44 (03:10) 2.22 (22:20) 8.9 0 0 7.5 1.4
15-11-2019 0.8 (14:10) -2.6 (-00:0) -0.9 5.83 (20:50) 2.78 (18:00) 10 0 3.4 6.6 0
14-11-2019 5.6 (13:30) -1.9 (-00:0) 1.8 10.28 (13:30) 4.17 (06:30) 12 5.4 6.6 0 0
13-11-2019 10.8 (12:10) 2.4 (00:00) 6.6 11.39 (13:10) 5 (13:10) 0 0 0 0 0
12-11-2019 9.9 (14:20) -0.1 (00:00) 4.9 10.56 (14:50) 4.72 (14:30) 0 0 0 0 0

Gráficas

Temp. máximas Temp. mínimas Temp. medias Precipitaciones Rachas de viento máximas Velocidades máximas media en intervalos de 10 minutos

Datos horarios

Fecha y hora oficial Temperatura (ºC) Velocidad del viento (km/h) Dirección del viento Racha (km/h) Dirección de racha Precipitación (mm) Presión (hPa) Tendencia (hPa) Humedad (%)
2019-12-11 23:00:00 1.7 12 Noroeste 30 Noroeste 0 -- -- 85
2019-12-11 22:00:00 1.9 15 Noroeste 28 Noroeste 0.1 -- -- 83
2019-12-11 21:00:00 2.7 15 Noroeste 37 Noroeste 0.1 -- -- 77
2019-12-11 20:00:00 4.2 17 Norte 47 Noroeste 0 -- -- 54
2019-12-11 19:00:00 4 27 Norte 63 Noroeste 0.1 -- -- 51
2019-12-11 18:00:00 3.4 19 Noroeste 41 Noroeste 0 -- -- 63
2019-12-11 17:00:00 4.5 20 Noroeste 36 Noroeste 0 -- -- 55
2019-12-11 16:00:00 5.4 14 Noroeste 42 Noroeste 0 -- -- 59
2019-12-11 15:00:00 5.4 17 Noroeste 36 Noroeste 0 -- -- 67
2019-12-11 14:00:00 4.8 17 Noroeste 32 Noroeste 0 -- -- 86
2019-12-11 13:00:00 4.1 14 Noroeste 31 Noroeste 0.1 -- -- 85
2019-12-11 12:00:00 3.2 8 Noroeste 24 Noroeste 0.1 -- -- 78
2019-12-11 11:00:00 3.9 4 Oeste 14 Sudoeste 0.1 -- -- 70
2019-12-11 10:00:00 3.7 3 Sudeste 8 Sudeste 0.1 -- -- 70
2019-12-11 09:00:00 3.3 3 Norte 9 Nordeste 0 -- -- 69
2019-12-11 08:00:00 3.2 0 Calma 14 Nordeste 0 -- -- 68
2019-12-11 07:00:00 3.4 0 Calma 11 Este 0 -- -- 68
2019-12-11 06:00:00 2.8 6 Nordeste 16 Nordeste 0 -- -- 68
2019-12-11 05:00:00 2.5 4 Sudeste 9 Sudeste 0 -- -- 70
2019-12-11 04:00:00 2.4 3 Sur 8 Sudeste 0 -- -- 70
2019-12-11 03:00:00 2.6 4 Sur 10 Nordeste 0 -- -- 70
2019-12-11 02:00:00 3 0 Calma 14 Nordeste 0 -- -- 67
2019-12-11 01:00:00 2.6 3 Nordeste 14 Nordeste 0 -- -- 70
2019-12-11 00:00:00 1.9 4 Nordeste 12 Nordeste 0 -- -- 73
2019-12-10 23:00:00 2.5 2 Nordeste 9 Nordeste 0 -- -- 73
2019-12-10 22:00:00 3.1 3 Nordeste 14 Nordeste 0 -- -- 72
2019-12-10 21:00:00 3.9 5 Nordeste 19 Nordeste 0 -- -- 70
2019-12-10 20:00:00 4.6 3 Este 10 Nordeste 0 -- -- 64
2019-12-10 19:00:00 5 3 Nordeste 14 Nordeste 0 -- -- 63
2019-12-10 18:00:00 6.2 5 Nordeste 11 Nordeste 0 -- -- 57
2019-12-10 17:00:00 9.5 0 Calma 7 Sudoeste 0 -- -- 42
2019-12-10 16:00:00 11.1 0 Calma 12 Noroeste 0 -- -- 40
2019-12-10 15:00:00 10.6 2 Noroeste 11 Noroeste 0 -- -- 40
2019-12-10 14:00:00 9.2 4 Oeste 12 Sudoeste 0 -- -- 42
2019-12-10 13:00:00 8.9 3 Sur 13 Sudoeste 0 -- -- 42
2019-12-10 12:00:00 6.8 3 Sur 15 Sudeste 0 -- -- 52
2019-12-10 11:00:00 3.8 2 Sudeste 7 Sudeste 0 -- -- 62
2019-12-10 10:00:00 2.9 5 Sur 12 Sudoeste 0 -- -- 63
2019-12-10 09:00:00 1.6 5 Sudeste 20 Sudeste 0 -- -- 66
2019-12-10 08:00:00 1.2 4 Sur 12 Sudeste 0 -- -- 68
2019-12-10 07:00:00 1.7 4 Sudoeste 13 Sudoeste 0 -- -- 68
2019-12-10 06:00:00 1.9 3 Oeste 21 Noroeste 0 -- -- 67
2019-12-10 05:00:00 2.1 4 Oeste 24 Noroeste 0 -- -- 67
2019-12-10 04:00:00 2.3 6 Noroeste 28 Noroeste 0 -- -- 67
2019-12-10 03:00:00 2.9 12 Noroeste 27 Noroeste 0 -- -- 67
2019-12-10 02:00:00 3.4 8 Oeste 23 Oeste 0 -- -- 63
2019-12-10 01:00:00 3.5 5 Oeste 30 Sudoeste 0 -- -- 57
2019-12-10 00:00:00 4.7 13 Oeste 46 Nordeste 0 -- -- 47
2019-12-09 23:00:00 5.9 23 Norte 56 Nordeste 0 -- -- 42
2019-12-09 22:00:00 3.6 8 Noroeste 30 Nordeste 0 -- -- 65
2019-12-09 21:00:00 4.9 7 Norte 28 Norte 0 -- -- 49
2019-12-09 20:00:00 4.3 7 Norte 23 Nordeste 0 -- -- 55
2019-12-09 19:00:00 5.6 10 Norte 38 Noroeste 0 -- -- 47
2019-12-09 18:00:00 6.1 19 Noroeste 41 Noroeste 0 -- -- 47
2019-12-09 17:00:00 6.5 16 Noroeste 40 Noroeste 0 -- -- 48
2019-12-09 16:00:00 7.4 19 Noroeste 42 Oeste 0 -- -- 49
2019-12-09 15:00:00 7.5 22 Noroeste 55 Noroeste 0 -- -- 47
2019-12-09 14:00:00 8.1 19 Noroeste 42 Noroeste 0 -- -- 46
2019-12-09 13:00:00 7.3 20 Noroeste 55 Noroeste 0 -- -- 52
2019-12-09 12:00:00 7.2 18 Noroeste 43 Noroeste 0.1 -- -- 59
2019-12-09 11:00:00 5.5 15 Noroeste 42 Noroeste 0 -- -- 76
2019-12-09 10:00:00 4 12 Noroeste 32 Noroeste 0.2 -- -- 88
2019-12-09 09:00:00 3.1 8 Noroeste 24 Noroeste 0 -- -- 87
2019-12-09 08:00:00 2.5 12 Noroeste 28 Noroeste 0 -- -- 87
2019-12-09 07:00:00 2 14 Noroeste 26 Noroeste 0 -- -- 88
2019-12-09 06:00:00 -1.5 4 Norte 23 Nordeste 0 -- -- 88
2019-12-09 05:00:00 -1.2 4 Nordeste 13 Nordeste 0 -- -- 88
2019-12-09 04:00:00 -0.6 6 Nordeste 15 Nordeste 0 -- -- 87
2019-12-09 03:00:00 -0.2 4 Nordeste 10 Nordeste 0 -- -- 87
2019-12-09 02:00:00 0.4 3 Norte 14 Nordeste 0 -- -- 85
2019-12-09 01:00:00 1.6 3 Nordeste 18 Noroeste 0 -- -- 83
2019-12-09 00:00:00 3.2 5 Oeste 24 Noroeste 0 -- -- 79
2019-12-08 23:00:00 4.5 6 Oeste 25 Oeste 0 -- -- 79
2019-12-08 22:00:00 5.5 5 Oeste 21 Sudoeste 0 -- -- 89
2019-12-08 21:00:00 6.3 7 Sudoeste 21 Sudoeste 0 -- -- 89
2019-12-08 20:00:00 6.2 0 Calma 15 Oeste 0 -- -- 89
2019-12-08 19:00:00 6 5 Sudoeste 13 Sudoeste 0 -- -- 88
2019-12-08 18:00:00 6.2 2 Oeste 15 Noroeste 0.6 -- -- 87
2019-12-08 17:00:00 6.8 4 Oeste 13 Oeste 0.2 -- -- 83
2019-12-08 16:00:00 7.2 7 Noroeste 20 Oeste 0 -- -- 77
2019-12-08 15:00:00 8.2 6 Sudoeste 15 Noroeste 0 -- -- 65
2019-12-08 14:00:00 10.1 4 Oeste 19 Oeste 0 -- -- 57
2019-12-08 13:00:00 10.3 5 Oeste 16 Noroeste 0 -- -- 58
2019-12-08 12:00:00 9.8 2 Sur 8 Sudeste 0 -- -- 57
2019-12-08 11:00:00 6.2 3 Sudeste 10 Sudeste 0 -- -- 70
2019-12-08 10:00:00 2.3 2 Este 22 Nordeste 0 -- -- 87
2019-12-08 09:00:00 0 15 Nordeste 25 Nordeste 0 -- -- 87
2019-12-08 08:00:00 0.5 10 Nordeste 18 Nordeste 0 -- -- 88
2019-12-08 07:00:00 1.6 6 Nordeste 23 Nordeste 0 -- -- 88
2019-12-08 06:00:00 0.9 10 Nordeste 20 Nordeste 0 -- -- 89
2019-12-08 05:00:00 0.6 8 Nordeste 24 Nordeste 0 -- -- 89
2019-12-08 04:00:00 0.7 3 Nordeste 13 Nordeste 0 -- -- 89
2019-12-08 03:00:00 1 0 Calma 20 Nordeste 0 -- -- 88
2019-12-08 02:00:00 0.8 9 Nordeste 24 Nordeste 0 -- -- 88
2019-12-08 01:00:00 1.7 10 Nordeste 22 Nordeste 0 -- -- 88
2019-12-08 00:00:00 1.8 7 Nordeste 18 Nordeste 0 -- -- 87
2019-12-07 23:00:00 2.3 0 Calma 10 Nordeste 0 -- -- 85
2019-12-07 22:00:00 2.5 8 Nordeste 18 Nordeste 0 -- -- 85
2019-12-07 21:00:00 3.2 6 Nordeste 15 Nordeste 0 -- -- 83
2019-12-07 20:00:00 4.4 3 Nordeste 22 Nordeste 0 -- -- 79
2019-12-07 19:00:00 5.1 8 Nordeste 19 Nordeste 0 -- -- 76
2019-12-07 18:00:00 6.6 3 Nordeste 8 Nordeste 0 -- -- 64
2019-12-07 17:00:00 9.7 3 Oeste 12 Oeste 0 -- -- 47
2019-12-07 16:00:00 10.6 8 Noroeste 16 Noroeste 0 -- -- 44
2019-12-07 15:00:00 10.8 6 Noroeste 10 Noroeste 0 -- -- 44
2019-12-07 14:00:00 10.3 5 Noroeste 10 Noroeste 0 -- -- 46
2019-12-07 13:00:00 10.6 0 Calma 8 Este 0 -- -- 46
2019-12-07 12:00:00 8.8 4 Sur 12 Sur 0 -- -- 52
2019-12-07 11:00:00 5.9 2 Sur 7 Sur 0 -- -- 70
2019-12-07 10:00:00 2.9 3 Sudeste 14 Nordeste 0 -- -- 85
2019-12-07 09:00:00 0.6 9 Nordeste 19 Nordeste 0 -- -- 88
2019-12-07 08:00:00 0.3 4 Nordeste 19 Nordeste 0 -- -- 88
2019-12-07 07:00:00 0.4 0 Calma 15 Nordeste 0 -- -- 88
2019-12-07 06:00:00 0.8 3 Este 18 Nordeste 0 -- -- 88
2019-12-07 05:00:00 0.5 12 Nordeste 19 Nordeste 0 -- -- 88
2019-12-07 04:00:00 0.7 4 Nordeste 11 Nordeste 0 -- -- 88
2019-12-07 03:00:00 0.7 0 Calma 19 Nordeste 0 -- -- 88
2019-12-07 02:00:00 0.8 7 Nordeste 16 Nordeste 0 -- -- 87
2019-12-07 01:00:00 1.2 5 Nordeste 20 Nordeste 0 -- -- 87
2019-12-07 00:00:00 1.5 12 Nordeste 22 Nordeste 0 -- -- 87
2019-12-06 23:00:00 1.9 6 Nordeste 19 Nordeste 0 -- -- 83
2019-12-06 22:00:00 2.4 10 Nordeste 19 Nordeste 0 -- -- 83
2019-12-06 21:00:00 3 9 Nordeste 20 Nordeste 0 -- -- 79
2019-12-06 20:00:00 4 13 Nordeste 23 Norte 0 -- -- 77
2019-12-06 19:00:00 5.7 10 Nordeste 20 Nordeste 0 -- -- 70
2019-12-06 18:00:00 8.1 0 Calma 7 Sur 0 -- -- 57
2019-12-06 17:00:00 10.3 4 Sur 8 Sur 0 -- -- 46
2019-12-06 16:00:00 11.6 0 Calma 9 Sur 0 -- -- 44
2019-12-06 15:00:00 11.8 5 Sur 8 Sur 0 -- -- 48
2019-12-06 14:00:00 9.2 3 Sur 12 Sudeste 0 -- -- 59
2019-12-06 13:00:00 8.7 4 Sur 8 Sudeste 0 -- -- 61
2019-12-06 12:00:00 6.1 4 Sudeste 10 Sudeste 0 -- -- 73
2019-12-06 11:00:00 4.8 7 Sudeste 13 Sudeste 0 -- -- 79
2019-12-06 10:00:00 4 4 Sudeste 14 Nordeste 0 -- -- 87
2019-12-06 09:00:00 1.6 5 Sur 12 Nordeste 0 -- -- 88
2019-12-06 08:00:00 1.8 4 Sur 12 Nordeste 0 -- -- 88
2019-12-06 07:00:00 2 6 Nordeste 16 Nordeste 0 -- -- 87
2019-12-06 06:00:00 2.8 7 Nordeste 17 Nordeste 0 -- -- 83
2019-12-06 05:00:00 3.6 10 Nordeste 18 Nordeste 0 -- -- 83
2019-12-06 04:00:00 4.1 0 Calma 9 Sur 0 -- -- 79
2019-12-06 03:00:00 4.1 4 Sudeste 10 Sudeste 0 -- -- 80
2019-12-06 02:00:00 4 2 Nordeste 9 Nordeste 0 -- -- 82
2019-12-06 01:00:00 3.5 2 Este 10 Nordeste 0 -- -- 82
2019-12-06 00:00:00 3 4 Este 15 Nordeste 0 -- -- 82
2019-12-05 23:00:00 3.5 7 Nordeste 16 Nordeste 0 -- -- 79
2019-12-05 22:00:00 3.9 4 Nordeste 10 Nordeste 0 -- -- 78
2019-12-05 21:00:00 4.3 4 Nordeste 16 Nordeste 0 -- -- 77
2019-12-05 20:00:00 5.6 6 Nordeste 16 Nordeste 0 -- -- 73
2019-12-05 19:00:00 5.8 7 Nordeste 15 Nordeste 0 -- -- 70
2019-12-05 18:00:00 6.8 3 Nordeste 8 Sur 0 -- -- 63
2019-12-05 17:00:00 8 3 Oeste 13 Noroeste 0 -- -- 55
2019-12-05 16:00:00 9.8 4 Noroeste 15 Noroeste 0 -- -- 51
2019-12-05 15:00:00 10 4 Oeste 12 Oeste 0 -- -- 48
2019-12-05 14:00:00 9.5 5 Sur 10 Sur 0 -- -- 51
2019-12-05 13:00:00 6.8 3 Sudeste 8 Sudeste 0 -- -- 60
2019-12-05 12:00:00 5.2 0 Calma 6 Oeste 0 -- -- 68
2019-12-05 11:00:00 3.3 0 Calma 8 Nordeste 0 -- -- 75
2019-12-05 10:00:00 1.7 0 Calma 10 Nordeste 0 -- -- 85
2019-12-05 09:00:00 0.9 5 Nordeste 18 Nordeste 0 -- -- 85
2019-12-05 08:00:00 0.8 0 Calma 10 Nordeste 0 -- -- 83
2019-12-05 07:00:00 1.2 0 Calma 19 Nordeste 0 -- -- 82
2019-12-05 06:00:00 1.3 6 Nordeste 12 Nordeste 0 -- -- 82
2019-12-05 05:00:00 1.5 0 Calma 10 Este 0 -- -- 82
2019-12-05 04:00:00 1.2 5 Sur 10 Norte 0 -- -- 82
2019-12-05 03:00:00 1.2 0 Calma 10 Norte 0 -- -- 81
2019-12-05 02:00:00 1 2 Nordeste 15 Norte 0 -- -- 81
2019-12-05 01:00:00 1.6 4 Nordeste 16 Nordeste 0 -- -- 79
2019-12-05 00:00:00 1.6 3 Sur 9 Sur 0 -- -- 78
2019-12-04 23:00:00 2 3 Norte 12 Nordeste 0 -- -- 75
2019-12-04 22:00:00 3.3 7 Nordeste 13 Nordeste 0 -- -- 70
2019-12-04 21:00:00 4.1 2 Nordeste 9 Sudeste 0 -- -- 66
2019-12-04 20:00:00 5 0 Calma 10 Sudeste 0 -- -- 61
2019-12-04 19:00:00 5.2 6 Sudeste 14 Sudeste 0 -- -- 61
2019-12-04 18:00:00 5.6 7 Sudeste 15 Sudeste 0 -- -- 57
2019-12-04 17:00:00 6.4 6 Sur 10 Sur 0 -- -- 52
2019-12-04 16:00:00 6.8 2 Oeste 9 Noroeste 0 -- -- 51
2019-12-04 15:00:00 7.4 2 Oeste 10 Oeste 0 -- -- 49
2019-12-04 14:00:00 6.4 0 Calma 7 Sudoeste 0 -- -- 53
2019-12-04 13:00:00 4.8 0 Calma 10 Sudeste 0 -- -- 58
2019-12-04 12:00:00 3.5 4 Sur 11 Sudeste 0 -- -- 65
2019-12-04 11:00:00 3.1 0 Calma 13 Sur 0 -- -- 65
2019-12-04 10:00:00 2.2 2 Sudeste 12 Nordeste 0 -- -- 73
2019-12-04 09:00:00 -0.8 5 Nordeste 19 Nordeste 0 -- -- 81
2019-12-04 08:00:00 -1.2 6 Nordeste 24 Nordeste 0 -- -- 83
2019-12-04 07:00:00 -1.1 8 Nordeste 17 Este 0 -- -- 83
2019-12-04 06:00:00 -1 3 Nordeste 10 Este 0 -- -- 83
2019-12-04 05:00:00 -0.8 2 Este 23 Nordeste 0 -- -- 83
2019-12-04 04:00:00 -0.5 11 Nordeste 23 Nordeste 0 -- -- 83
2019-12-04 03:00:00 -0.2 0 Calma 18 Este 0 -- -- 83
2019-12-04 02:00:00 -0.5 5 Nordeste 19 Nordeste 0 -- -- 84
2019-12-04 01:00:00 -0.9 5 Nordeste 15 Nordeste 0 -- -- 84
2019-12-04 00:00:00 -0.5 5 Nordeste 13 Nordeste 0 -- -- 84
2019-12-03 23:00:00 -0.3 4 Nordeste 19 Nordeste 0 -- -- 84
2019-12-03 22:00:00 -0.4 4 Nordeste 15 Nordeste 0 -- -- 85
2019-12-03 21:00:00 -0.3 4 Nordeste 14 Nordeste 0 -- -- 83
2019-12-03 20:00:00 0.4 5 Nordeste 12 Nordeste 0 -- -- 81
2019-12-03 19:00:00 1.8 0 Calma 9 Oeste 0 -- -- 70
2019-12-03 18:00:00 3.8 5 Oeste 13 Noroeste 0 -- -- 63
2019-12-03 17:00:00 5.3 3 Oeste 14 Noroeste 0 -- -- 55
2019-12-03 16:00:00 8 3 Oeste 10 Oeste 0 -- -- 49
2019-12-03 15:00:00 7.9 5 Oeste 11 Sudoeste 0 -- -- 49
2019-12-03 14:00:00 7 4 Oeste 10 Sudoeste 0 -- -- 49
2019-12-03 13:00:00 4.9 4 Noroeste 8 Sur 0 -- -- 52
2019-12-03 12:00:00 4.2 4 Sudeste 12 Sur 0 -- -- 57
2019-12-03 11:00:00 1.3 6 Sudeste 14 Sudeste 0 -- -- 76
2019-12-03 10:00:00 -1.4 5 Sur 12 Sur 0 -- -- 88
2019-12-03 09:00:00 -3 0 Calma 6 Nordeste 0 -- -- 88
2019-12-03 08:00:00 -3.2 0 Calma 10 Sudeste 0 -- -- 88
2019-12-03 07:00:00 -3.1 0 Calma 8 Sur 0 -- -- 88
2019-12-03 06:00:00 -2.8 3 Sur 9 Nordeste 0 -- -- 88
2019-12-03 05:00:00 -2.7 0 Calma 7 Norte 0 -- -- 88
2019-12-03 04:00:00 -2.5 0 Calma 6 Nordeste 0 -- -- 87
2019-12-03 03:00:00 -2.3 0 Calma 4 Sur 0 -- -- 87
2019-12-03 02:00:00 -2.3 0 Calma 4 Nordeste 0 -- -- 85
2019-12-03 01:00:00 -1.6 0 Calma 5 Sur 0 -- -- 84
2019-12-03 00:00:00 -1.1 0 Calma 7 Sudeste 0 -- -- 83
2019-12-02 23:00:00 -0.8 0 Calma 12 Oeste 0 -- -- 81
2019-12-02 22:00:00 0.5 0 Calma 11 Noroeste 0 -- -- 77
2019-12-02 21:00:00 1.9 5 Oeste 12 Noroeste 0 -- -- 73
2019-12-02 20:00:00 2.9 7 Noroeste 20 Sudoeste 0 -- -- 70
2019-12-02 19:00:00 3.9 7 Oeste 21 Noroeste 0 -- -- 64
2019-12-02 18:00:00 5.9 4 Oeste 26 Norte 0 -- -- 53
2019-12-02 17:00:00 7.1 5 Norte 14 Nordeste 0 -- -- 51
2019-12-02 16:00:00 9 8 Noroeste 15 Noroeste 0 -- -- 46
2019-12-02 15:00:00 9.8 4 Oeste 15 Noroeste 0 -- -- 44
2019-12-02 14:00:00 8 7 Noroeste 16 Noroeste 0 -- -- 47
2019-12-02 13:00:00 7.7 4 Oeste 14 Noroeste 0 -- -- 49
2019-12-02 12:00:00 7.1 2 Oeste 9 Sudoeste 0 -- -- 54
2019-12-02 11:00:00 5 4 Sur 12 Sur 0 -- -- 59
2019-12-02 10:00:00 1.8 2 Sur 10 Sudeste 0 -- -- 78
2019-12-02 09:00:00 -0.7 4 Sudeste 9 Sudeste 0 -- -- 84
2019-12-02 08:00:00 -1.2 4 Sur 9 Sudeste 0 -- -- 85
2019-12-02 07:00:00 -1 2 Sur 9 Nordeste 0 -- -- 85
2019-12-02 06:00:00 -1.2 0 Calma 7 Nordeste 0 -- -- 86
2019-12-02 05:00:00 -0.7 2 Este 8 Nordeste 0 -- -- 86
2019-12-02 04:00:00 -0.5 0 Calma 7 Nordeste 0 -- -- 86
2019-12-02 03:00:00 -0.4 0 Calma 6 Nordeste 0 -- -- 86
2019-12-02 02:00:00 -0.3 0 Calma 7 Nordeste 0 -- -- 85
2019-12-02 01:00:00 0 2 Norte 10 Nordeste 0 -- -- 85
2019-12-02 00:00:00 0.4 0 Calma 9 Nordeste 0 -- -- 85
2019-12-01 23:00:00 0.7 5 Nordeste 15 Nordeste 0 -- -- 85
2019-12-01 22:00:00 1.2 3 Nordeste 12 Nordeste 0 -- -- 83
2019-12-01 21:00:00 1.7 2 Nordeste 8 Nordeste 0 -- -- 83
2019-12-01 20:00:00 2.3 5 Nordeste 11 Norte 0 -- -- 83
2019-12-01 19:00:00 3.7 5 Nordeste 12 Nordeste 0 -- -- 78
2019-12-01 18:00:00 6 0 Calma 13 Noroeste 0 -- -- 67
2019-12-01 17:00:00 7.8 5 Oeste 14 Noroeste 0 -- -- 57
2019-12-01 16:00:00 8.9 6 Oeste 16 Noroeste 0 -- -- 49
2019-12-01 15:00:00 10.5 5 Oeste 13 Noroeste 0 -- -- 49
2019-12-01 14:00:00 9.8 6 Sudoeste 12 Sudoeste 0 -- -- 52
2019-12-01 13:00:00 8.9 4 Oeste 12 Oeste 0 -- -- 61
2019-12-01 12:00:00 7.8 3 Sudeste 9 Sur 0 -- -- 70
2019-12-01 11:00:00 4.4 3 Nordeste 9 Sudeste 0 -- -- 89
2019-12-01 10:00:00 2.8 3 Nordeste 12 Nordeste 0 -- -- 89
2019-12-01 09:00:00 1.6 3 Este 19 Nordeste 0 -- -- 89
2019-12-01 08:00:00 1.3 10 Nordeste 23 Nordeste 0 -- -- 89
2019-12-01 07:00:00 1.8 8 Nordeste 19 Nordeste 0 -- -- 89
2019-12-01 06:00:00 2.6 12 Nordeste 24 Este 0 -- -- 89
2019-12-01 05:00:00 2.8 5 Nordeste 13 Nordeste 0 -- -- 88
2019-12-01 04:00:00 3.4 0 Calma 9 Norte 0 -- -- 88
2019-12-01 03:00:00 3.9 4 Nordeste 16 Nordeste 0 -- -- 88
2019-12-01 02:00:00 5 5 Nordeste 13 Nordeste 0 -- -- 88
2019-12-01 01:00:00 5.6 0 Calma 25 Sudeste 0 -- -- 88
2019-12-01 00:00:00 5.6 3 Sur 11 Sur 0 -- -- 88
2019-11-30 23:00:00 5.5 4 Sudeste 12 Noroeste 0 -- -- 88
2019-11-30 22:00:00 5.3 3 Este 10 Noroeste 0.1 -- -- 88
2019-11-30 21:00:00 5.6 3 Sudoeste 36 Noroeste 3.9 -- -- 87
2019-11-30 20:00:00 8.4 10 Oeste 34 Noroeste 1.9 -- -- 79
2019-11-30 19:00:00 10.5 0 Calma 33 Oeste 0.1 -- -- 71
2019-11-30 18:00:00 9.9 2 Este 23 Sudeste 0 -- -- 73
2019-11-30 17:00:00 9.3 8 Sudeste 22 Sudeste 0 -- -- 72
2019-11-30 16:00:00 9.9 5 Sudeste 18 Sudeste 0 -- -- 68
2019-11-30 15:00:00 9.5 7 Sudeste 17 Este 0 -- -- 68
2019-11-30 14:00:00 9.7 6 Sudeste 21 Este 0 -- -- 65
2019-11-30 13:00:00 9.1 6 Este 17 Este 0 -- -- 57
2019-11-30 12:00:00 8.6 5 Este 16 Este 0 -- -- 53
2019-11-30 11:00:00 7.2 6 Este 14 Sudeste 0 -- -- 55
2019-11-30 10:00:00 6.5 7 Este 21 Este 0 -- -- 51
2019-11-30 09:00:00 5.3 7 Este 27 Este 0 -- -- 52
2019-11-30 08:00:00 4.4 4 Este 27 Nordeste 0 -- -- 51
2019-11-30 07:00:00 3.4 2 Este 24 Nordeste 0 -- -- 54
2019-11-30 06:00:00 2.2 5 Este 20 Sudeste 0 -- -- 62
2019-11-30 05:00:00 1.7 9 Este 29 Nordeste 0 -- -- 67
2019-11-30 04:00:00 1.7 12 Nordeste 29 Nordeste 0 -- -- 66
2019-11-30 03:00:00 1.2 5 Nordeste 27 Nordeste 0 -- -- 73
2019-11-30 02:00:00 1.4 14 Nordeste 26 Nordeste 0 -- -- 77
2019-11-30 01:00:00 1.8 4 Nordeste 20 Nordeste 0 -- -- 79
2019-11-30 00:00:00 2.2 8 Nordeste 19 Nordeste 0 -- -- 79
2019-11-29 23:00:00 2.1 6 Nordeste 21 Nordeste 0 -- -- 81
2019-11-29 22:00:00 3 7 Nordeste 27 Nordeste 0 -- -- 77
2019-11-29 21:00:00 2.9 11 Nordeste 22 Nordeste 0 -- -- 80
2019-11-29 20:00:00 3.9 12 Nordeste 26 Nordeste 0 -- -- 77
2019-11-29 19:00:00 5 6 Nordeste 16 Nordeste 0 -- -- 76
2019-11-29 18:00:00 7.6 3 Norte 19 Oeste 0 -- -- 58
2019-11-29 17:00:00 9.3 10 Noroeste 26 Oeste 0 -- -- 51
2019-11-29 16:00:00 10.7 9 Noroeste 31 Noroeste 0 -- -- 48
2019-11-29 15:00:00 11.3 12 Noroeste 28 Noroeste 0 -- -- 49
2019-11-29 14:00:00 11.3 10 Noroeste 24 Oeste 0 -- -- 51
2019-11-29 13:00:00 10.8 10 Noroeste 24 Oeste 0 -- -- 57
2019-11-29 12:00:00 10 8 Noroeste 19 Noroeste 0 -- -- 62
2019-11-29 11:00:00 8.6 8 Noroeste 19 Oeste 0 -- -- 89
2019-11-29 10:00:00 7.7 6 Oeste 17 Noroeste 0 -- -- 89
2019-11-29 09:00:00 6.5 0 Calma 9 Oeste 0 -- -- 89
2019-11-29 08:00:00 7.4 2 Oeste 18 Noroeste 0 -- -- 89
2019-11-29 07:00:00 7.7 6 Noroeste 23 Noroeste 0.1 -- -- 89
2019-11-29 06:00:00 7.7 8 Noroeste 15 Noroeste 0.1 -- -- 88
2019-11-29 05:00:00 7.9 3 Noroeste 8 Noroeste 0 -- -- 88
2019-11-29 04:00:00 7.8 4 Noroeste 6 Oeste 0.3 -- -- 88
2019-11-29 03:00:00 7.8 0 Calma 0 Calma 0.2 -- -- 88
2019-11-29 02:00:00 7.8 0 Calma 5 Este 0.2 -- -- 88
2019-11-29 01:00:00 7.9 0 Calma 6 Sudeste 0.7 -- -- 88
2019-11-29 00:00:00 8 2 Sudeste 5 Sur 0.5 -- -- 88
2019-11-28 23:00:00 8 0 Calma 4 Nordeste 0.2 -- -- 88
2019-11-28 22:00:00 8 0 Calma 4 Nordeste 0.3 -- -- 88
2019-11-28 21:00:00 8.1 2 Sudeste 7 Nordeste 0.4 -- -- 88
2019-11-28 20:00:00 8.1 0 Calma 11 Norte 0.9 -- -- 88
2019-11-28 19:00:00 8.1 5 Nordeste 17 Nordeste 0.8 -- -- 88
2019-11-28 18:00:00 8.3 6 Nordeste 11 Nordeste 0.7 -- -- 85
2019-11-28 17:00:00 8.9 3 Nordeste 10 Este 0 -- -- 81
2019-11-28 16:00:00 9.4 2 Nordeste 5 Sudeste 0 -- -- 78
2019-11-28 15:00:00 9.5 3 Noroeste 6 Sudoeste 0 -- -- 77
2019-11-28 14:00:00 9.7 3 Noroeste 8 Noroeste 0 -- -- 78
2019-11-28 13:00:00 9.7 3 Noroeste 8 Noroeste 0 -- -- 79
2019-11-28 12:00:00 9 3 Noroeste 8 Oeste 0 -- -- 85
2019-11-28 11:00:00 7.9 0 Calma 7 Sur 0 -- -- 89
2019-11-28 10:00:00 6.8 5 Sur 10 Sur 0 -- -- 89
2019-11-28 09:00:00 6.2 0 Calma 5 Noroeste 0 -- -- 89
2019-11-28 08:00:00 5.7 3 Norte 7 Norte 0 -- -- 89
2019-11-28 07:00:00 5.6 4 Nordeste 8 Norte 0 -- -- 89
2019-11-28 06:00:00 5.6 2 Norte 8 Sur 0.4 -- -- 89
2019-11-28 05:00:00 5.6 4 Sur 7 Sudeste 0 -- -- 89
2019-11-28 04:00:00 5.7 0 Calma 6 Sur 0.2 -- -- 89
2019-11-28 03:00:00 5.5 0 Calma 9 Sudeste 0 -- -- 89
2019-11-28 02:00:00 5.6 3 Sudeste 7 Sudeste 0 -- -- 89
2019-11-28 01:00:00 5.5 3 Sudeste 10 Nordeste 0.1 -- -- 89
2019-11-28 00:00:00 5.3 6 Nordeste 10 Norte 1.5 -- -- 88
2019-11-27 23:00:00 5.4 3 Nordeste 8 Nordeste 0.6 -- -- 88
2019-11-27 22:00:00 5.5 0 Calma 18 Nordeste 0.7 -- -- 88
2019-11-27 21:00:00 5.5 10 Nordeste 21 Nordeste 1.1 -- -- 88
2019-11-27 20:00:00 6.7 7 Nordeste 14 Nordeste 1.3 -- -- 88
2019-11-27 19:00:00 6.9 5 Nordeste 12 Nordeste 0.8 -- -- 85
2019-11-27 18:00:00 8 2 Nordeste 4 Norte 0.1 -- -- 70
2019-11-27 17:00:00 8.7 2 Noroeste 8 Noroeste 0 -- -- 62
2019-11-27 16:00:00 9.3 4 Oeste 16 Noroeste 0 -- -- 57
2019-11-27 15:00:00 9.9 7 Noroeste 20 Noroeste 0 -- -- 52
2019-11-27 14:00:00 9.6 9 Norte 21 Noroeste 0 -- -- 55
2019-11-27 06:00:00 6 3 Norte 26 Noroeste 0 -- -- 77
2019-11-27 05:00:00 7.1 17 Noroeste 37 Noroeste 0 -- -- 81
2019-11-27 04:00:00 8 2 Norte 8 Norte 1.1 -- -- 88
2019-11-27 03:00:00 8.6 0 Calma 10 Noroeste 0.1 -- -- 87
2019-11-27 02:00:00 8.9 6 Oeste 29 Norte 1.6 -- -- 85
2019-11-27 01:00:00 10.8 5 Sudoeste 22 Sudoeste 0 -- -- 73
2019-11-27 00:00:00 10.4 3 Sur 13 Sudeste 0.4 -- -- 79
2019-11-26 23:00:00 10.7 3 Nordeste 12 Sudoeste 3.6 -- -- 77
2019-11-26 22:00:00 11.9 3 Sur 19 Sur 0 -- -- 61
2019-11-26 21:00:00 11.7 4 Sudeste 23 Sudeste 0 -- -- 61
2019-11-26 20:00:00 11.4 4 Sudeste 14 Sudeste 0 -- -- 61
2019-11-26 19:00:00 11.4 6 Sudeste 17 Sudeste 0 -- -- 58
2019-11-26 18:00:00 11.2 3 Sudeste 13 Sudeste 0 -- -- 57
2019-11-26 17:00:00 12.3 5 Sudeste 13 Sudeste 0 -- -- 54
2019-11-26 16:00:00 12.1 5 Este 13 Sudeste 0 -- -- 55
2019-11-26 15:00:00 12.1 5 Sudeste 13 Sudeste 0 -- -- 52
2019-11-26 14:00:00 11.5 6 Sudeste 15 Sudeste 0 -- -- 54
2019-11-26 13:00:00 10.3 4 Sudeste 14 Sudeste 0 -- -- 57
2019-11-26 12:00:00 10.2 6 Sudeste 16 Sudeste 0 -- -- 57
2019-11-26 11:00:00 7.5 4 Sudeste 12 Sudeste 0 -- -- 73
2019-11-26 10:00:00 5.9 4 Sudeste 11 Este 0 -- -- 79
2019-11-26 09:00:00 3 6 Sudeste 16 Nordeste 0 -- -- 85
2019-11-26 08:00:00 3.2 6 Nordeste 15 Nordeste 0 -- -- 85
2019-11-26 07:00:00 3.1 0 Calma 18 Nordeste 0 -- -- 85
2019-11-26 06:00:00 2.6 6 Nordeste 23 Nordeste 0 -- -- 85
2019-11-26 05:00:00 3.2 9 Nordeste 19 Nordeste 0 -- -- 86
2019-11-26 04:00:00 3.4 5 Nordeste 18 Nordeste 0 -- -- 86
2019-11-26 03:00:00 3.6 9 Nordeste 18 Nordeste 0 -- -- 86
2019-11-26 02:00:00 3.5 4 Nordeste 22 Nordeste 0 -- -- 85
2019-11-26 01:00:00 4.1 6 Nordeste 21 Este 0 -- -- 85
2019-11-26 00:00:00 4.3 9 Nordeste 21 Nordeste 0 -- -- 85
2019-11-25 23:00:00 4.9 9 Nordeste 21 Nordeste 0 -- -- 83
2019-11-25 22:00:00 5.4 11 Nordeste 20 Nordeste 0 -- -- 82
2019-11-25 21:00:00 5.9 5 Nordeste 27 Nordeste 0 -- -- 79
2019-11-25 20:00:00 6 14 Nordeste 23 Nordeste 0 -- -- 82
2019-11-25 19:00:00 7.4 9 Nordeste 17 Nordeste 0 -- -- 79
2019-11-25 18:00:00 8.9 0 Calma 6 Sudoeste 0 -- -- 73
2019-11-25 17:00:00 10.3 0 Calma 10 Oeste 0 -- -- 66
2019-11-25 16:00:00 11.1 5 Noroeste 14 Noroeste 0 -- -- 64
2019-11-25 15:00:00 11.1 4 Noroeste 14 Noroeste 0 -- -- 64
2019-11-25 14:00:00 11 0 Calma 10 Sudoeste 0 -- -- 65
2019-11-25 13:00:00 10.2 3 Sudoeste 9 Sur 0 -- -- 68
2019-11-25 12:00:00 7.4 4 Sur 7 Este 0 -- -- 85
2019-11-25 11:00:00 6.7 0 Calma 4 Sudeste 0 -- -- 88
2019-11-25 10:00:00 5 0 Calma 16 Nordeste 0.1 -- -- 87
2019-11-25 09:00:00 4 2 Sur 12 Sudeste 0 -- -- 87
2019-11-25 08:00:00 3.2 6 Sudeste 10 Sur 0 -- -- 88
2019-11-25 07:00:00 3.3 5 Sudeste 9 Sudeste 0 -- -- 88
2019-11-25 06:00:00 3.4 4 Sur 11 Sudeste 0 -- -- 88
2019-11-25 05:00:00 3.5 3 Sudeste 9 Sudeste 0.1 -- -- 89
2019-11-25 04:00:00 3.2 0 Calma 12 Nordeste 0 -- -- 89
2019-11-25 03:00:00 2.8 7 Nordeste 15 Nordeste 0 -- -- 89
2019-11-25 02:00:00 2.6 3 Sur 12 Nordeste 0 -- -- 88
2019-11-25 01:00:00 2.6 6 Nordeste 18 Nordeste 0.2 -- -- 88
2019-11-25 00:00:00 2.9 3 Sur 17 Nordeste 0.4 -- -- 85
2019-11-24 23:00:00 2.3 9 Nordeste 18 Nordeste 0 -- -- 85
2019-11-24 22:00:00 2.2 3 Nordeste 19 Nordeste 0 -- -- 86
2019-11-24 21:00:00 2 7 Nordeste 17 Nordeste 0 -- -- 85
2019-11-24 20:00:00 2.5 10 Nordeste 18 Nordeste 0 -- -- 85
2019-11-24 19:00:00 3.8 0 Calma 15 Noroeste 0 -- -- 83
2019-11-24 18:00:00 4.4 6 Noroeste 14 Oeste 0 -- -- 79
2019-11-24 17:00:00 5.3 7 Noroeste 31 Oeste 0 -- -- 74
2019-11-24 16:00:00 7.6 9 Oeste 32 Oeste 0 -- -- 65
2019-11-24 15:00:00 7.7 12 Noroeste 34 Noroeste 0 -- -- 64
2019-11-24 14:00:00 7.5 16 Noroeste 39 Noroeste 0 -- -- 65
2019-11-24 13:00:00 6.2 16 Noroeste 36 Noroeste 0 -- -- 73
2019-11-24 12:00:00 5.5 12 Noroeste 30 Noroeste 0 -- -- 79
2019-11-24 11:00:00 4.2 11 Noroeste 24 Noroeste 0 -- -- 88
2019-11-24 10:00:00 3.5 4 Noroeste 15 Sudoeste 0 -- -- 91
2019-11-24 09:00:00 2.2 5 Noroeste 14 Noroeste 0 -- -- 91
2019-11-24 08:00:00 1.8 4 Norte 29 Noroeste 0 -- -- 91
2019-11-24 07:00:00 1.7 11 Noroeste 28 Noroeste 0 -- -- 90
2019-11-24 06:00:00 2.2 8 Noroeste 28 Oeste 0 -- -- 90
2019-11-24 05:00:00 1.9 13 Noroeste 27 Noroeste 0 -- -- 90
2019-11-24 04:00:00 1.7 5 Noroeste 23 Noroeste 0 -- -- 90
2019-11-24 03:00:00 1.9 12 Noroeste 30 Oeste 0 -- -- 90
2019-11-24 02:00:00 2 10 Noroeste 27 Noroeste 0 -- -- 90
2019-11-24 01:00:00 2.3 13 Noroeste 30 Noroeste 0 -- -- 89
2019-11-24 00:00:00 2.2 12 Noroeste 25 Noroeste 0 -- -- 89
2019-11-23 23:00:00 2.4 10 Noroeste 32 Noroeste 0 -- -- 86
2019-11-23 22:00:00 2.6 18 Noroeste 33 Noroeste 0 -- -- 87
2019-11-23 21:00:00 2.6 3 Sudoeste 23 Noroeste 0 -- -- 87
2019-11-23 20:00:00 2.6 15 Noroeste 35 Noroeste 0 -- -- 83
2019-11-23 19:00:00 2.6 15 Noroeste 31 Noroeste 0 -- -- 87
2019-11-23 18:00:00 3.6 15 Noroeste 35 Noroeste 0 -- -- 82
2019-11-23 17:00:00 4.1 11 Noroeste 37 Noroeste 0 -- -- 82
2019-11-23 16:00:00 4.8 15 Noroeste 36 Noroeste 0 -- -- 76
2019-11-23 15:00:00 4.4 16 Noroeste 34 Noroeste 0 -- -- 87
2019-11-23 14:00:00 3.6 11 Noroeste 26 Noroeste 0.4 -- -- 90
2019-11-23 13:00:00 3.2 9 Noroeste 22 Oeste 1 -- -- 91
2019-11-23 12:00:00 2.7 12 Noroeste 30 Oeste 1.4 -- -- 91
2019-11-23 11:00:00 3 3 Noroeste 13 Nordeste 0.7 -- -- 90
2019-11-23 10:00:00 2.2 5 Norte 14 Nordeste 0.7 -- -- 89
2019-11-23 09:00:00 1.6 8 Nordeste 29 Noroeste 3.4 -- -- 89
2019-11-23 08:00:00 2.3 18 Noroeste 42 Noroeste 2.4 -- -- 89
2019-11-23 07:00:00 4.7 4 Nordeste 16 Nordeste 0 -- -- 89
2019-11-23 06:00:00 4.9 4 Nordeste 9 Nordeste 0.1 -- -- 89
2019-11-23 05:00:00 5.1 0 Calma 6 Este 0 -- -- 89
2019-11-23 04:00:00 5.1 0 Calma 5 Nordeste 0 -- -- 89
2019-11-23 03:00:00 5.3 3 Sudeste 12 Sur 0.1 -- -- 89
2019-11-23 02:00:00 5.3 0 Calma 12 Nordeste 0 -- -- 89
2019-11-23 01:00:00 5.2 3 Nordeste 12 Nordeste 0.1 -- -- 89
2019-11-23 00:00:00 5.5 3 Este 24 Nordeste 0 -- -- 89
2019-11-22 23:00:00 5.7 9 Norte 32 Noroeste 5 -- -- 89
2019-11-22 22:00:00 7 10 Sudeste 29 Este 1.1 -- -- 86
2019-11-22 21:00:00 6.2 10 Este 25 Sudeste 2.4 -- -- 87
2019-11-22 20:00:00 6 9 Sudeste 32 Sudeste 0.9 -- -- 85
2019-11-22 19:00:00 5.5 7 Sudeste 22 Sudeste 1.5 -- -- 85
2019-11-22 18:00:00 5.4 10 Sudeste 30 Sudeste 2.2 -- -- 82
2019-11-22 17:00:00 5.3 9 Sudeste 22 Este 2.4 -- -- 83
2019-11-22 16:00:00 5.6 9 Sudeste 30 Sudeste 1.1 -- -- 78
2019-11-22 15:00:00 5.8 13 Sudeste 33 Sudeste 0.5 -- -- 77
2019-11-22 14:00:00 6 12 Sudeste 36 Sudeste 0.6 -- -- 76
2019-11-22 13:00:00 6.1 15 Sudeste 43 Sudeste 0.7 -- -- 70
2019-11-22 12:00:00 6.9 10 Sudeste 25 Sudeste 0.1 -- -- 65
2019-11-22 11:00:00 7.2 7 Sudeste 26 Sudeste 0 -- -- 59
2019-11-22 10:00:00 6.5 9 Sudeste 23 Sudeste 0 -- -- 61
2019-11-22 09:00:00 5.2 8 Sur 20 Sur 0 -- -- 68
2019-11-22 08:00:00 4.8 6 Sudeste 16 Sudeste 0 -- -- 70
2019-11-22 07:00:00 4.3 6 Sudeste 15 Sudeste 0 -- -- 73
2019-11-22 06:00:00 3.7 5 Sudeste 14 Sudeste 0 -- -- 75
2019-11-22 05:00:00 3.8 7 Sudeste 16 Sudeste 0 -- -- 76
2019-11-22 04:00:00 3.8 6 Sudeste 16 Sudeste 0 -- -- 77
2019-11-22 03:00:00 3.3 3 Sudeste 13 Sudeste 0 -- -- 79
2019-11-22 02:00:00 3 4 Sudeste 11 Sudeste 0 -- -- 79
2019-11-22 01:00:00 2.6 3 Nordeste 15 Nordeste 0 -- -- 79
2019-11-22 00:00:00 2.3 6 Nordeste 20 Nordeste 0 -- -- 79
2019-11-21 23:00:00 2.1 4 Nordeste 21 Nordeste 0 -- -- 78
2019-11-21 22:00:00 3 7 Nordeste 22 Nordeste 0 -- -- 76
2019-11-21 21:00:00 3.6 6 Nordeste 19 Nordeste 0 -- -- 72
2019-11-21 20:00:00 4.3 9 Nordeste 18 Nordeste 0 -- -- 70
2019-11-21 19:00:00 4.7 6 Nordeste 17 Nordeste 0 -- -- 68
2019-11-21 18:00:00 5.6 5 Nordeste 12 Nordeste 0 -- -- 63
2019-11-21 17:00:00 6.8 3 Este 9 Sudeste 0 -- -- 57
2019-11-21 16:00:00 6.9 2 Este 10 Sudeste 0 -- -- 57
2019-11-21 15:00:00 7.1 5 Sudeste 13 Sudeste 0 -- -- 55
2019-11-21 14:00:00 7.3 5 Sudeste 13 Sudeste 0 -- -- 54
2019-11-21 13:00:00 6.4 5 Sudeste 12 Sudeste 0 -- -- 59
2019-11-21 12:00:00 5.9 6 Sur 13 Sur 0 -- -- 64
2019-11-21 11:00:00 4.3 2 Sudeste 10 Sudeste 0 -- -- 73
2019-11-21 10:00:00 3.5 3 Nordeste 12 Este 0 -- -- 78
2019-11-21 09:00:00 2.7 3 Sur 10 Nordeste 0 -- -- 79
2019-11-21 08:00:00 -- -- -- -- -- -- -- -- --
2019-11-21 07:00:00 -- -- -- -- -- -- -- -- --
2019-11-21 06:00:00 -- -- -- -- -- -- -- -- --
2019-11-21 05:00:00 -- -- -- -- -- -- -- -- --
2019-11-21 04:00:00 -- -- -- -- -- -- -- -- --
2019-11-21 03:00:00 -- -- -- -- -- -- -- -- --
2019-11-21 02:00:00 -- -- -- -- -- -- -- -- --
2019-11-21 01:00:00 -- -- -- -- -- -- -- -- --
2019-11-21 00:00:00 -- -- -- -- -- -- -- -- --
2019-11-20 23:00:00 -- -- -- -- -- -- -- -- --
2019-11-20 22:00:00 3.8 3 Este 11 Sudeste 0 -- -- 57
2019-11-20 21:00:00 3.5 3 Nordeste 16 Este 0 -- -- 58
2019-11-20 20:00:00 4.2 6 Este 19 Este 0 -- -- 55
2019-11-20 19:00:00 4.6 5 Este 15 Sudeste 0 -- -- 52
2019-11-20 18:00:00 5.1 4 Sudeste 11 Sudeste 0 -- -- 48
2019-11-20 17:00:00 6.7 3 Sudeste 17 Sur 0 -- -- 43
2019-11-20 16:00:00 8 6 Sudeste 17 Sudeste 0 -- -- 40
2019-11-20 15:00:00 8.4 7 Sudeste 17 Sudeste 0 -- -- 38
2019-11-20 14:00:00 8 7 Sudeste 18 Este 0 -- -- 38
2019-11-20 13:00:00 7.1 6 Sudeste 15 Sudeste 0 -- -- 40
2019-11-20 12:00:00 5.5 5 Sudeste 15 Sudeste 0 -- -- 44
2019-11-20 11:00:00 2.8 3 Este 14 Este 0 -- -- 55
2019-11-20 10:00:00 0.4 8 Este 23 Nordeste 0 -- -- 62
2019-11-20 09:00:00 -1.3 8 Nordeste 23 Nordeste 0 -- -- 72
2019-11-20 08:00:00 -1.7 8 Nordeste 22 Nordeste 0 -- -- 75
2019-11-20 07:00:00 -2.1 3 Nordeste 20 Nordeste 0 -- -- 75
2019-11-20 06:00:00 -1.7 7 Nordeste 21 Nordeste 0 -- -- 79
2019-11-20 05:00:00 -1.9 5 Nordeste 13 Nordeste 0 -- -- 78
2019-11-20 04:00:00 -1.7 5 Nordeste 13 Este 0 -- -- 75
2019-11-20 03:00:00 -1.1 5 Este 18 Nordeste 0 -- -- 76
2019-11-20 02:00:00 -1 9 Nordeste 20 Nordeste 0 -- -- 78
2019-11-20 01:00:00 -1.1 6 Nordeste 21 Nordeste 0 -- -- 79
2019-11-20 00:00:00 -1.2 8 Nordeste 20 Nordeste 0 -- -- 79
2019-11-19 23:00:00 -0.9 5 Nordeste 18 Nordeste 0 -- -- 78
2019-11-19 22:00:00 -0.9 8 Nordeste 16 Este 0 -- -- 79
2019-11-19 21:00:00 -0.3 6 Nordeste 21 Nordeste 0 -- -- 75
2019-11-19 20:00:00 0 8 Nordeste 21 Nordeste 0 -- -- 73
2019-11-19 19:00:00 0.6 11 Nordeste 24 Nordeste 0 -- -- 70
2019-11-19 18:00:00 2.3 9 Nordeste 17 Nordeste 0 -- -- 55
2019-11-19 17:00:00 5.7 6 Oeste 13 Noroeste 0 -- -- 38
2019-11-19 16:00:00 7.5 5 Oeste 13 Oeste 0 -- -- 37
2019-11-19 15:00:00 7.2 3 Noroeste 8 Noroeste 0 -- -- 37
2019-11-19 14:00:00 6.3 3 Noroeste 10 Noroeste 0 -- -- 40
2019-11-19 13:00:00 5 5 Noroeste 11 Noroeste 0 -- -- 40
2019-11-19 12:00:00 5.3 2 Sudoeste 12 Sur 0 -- -- 44
2019-11-19 11:00:00 2.6 4 Sur 15 Sudeste 0 -- -- 54
2019-11-19 10:00:00 -1.1 2 Este 12 Este 0 -- -- 73
2019-11-19 09:00:00 -3.5 5 Sudeste 13 Nordeste 0 -- -- 83
2019-11-19 08:00:00 -4.5 3 Nordeste 7 Sudeste 0 -- -- 83
2019-11-19 07:00:00 -4 3 Sudeste 8 Sudeste 0 -- -- 81
2019-11-19 06:00:00 -3.7 3 Sudeste 7 Sudeste 0 -- -- 81
2019-11-19 05:00:00 -3.6 2 Nordeste 11 Sudeste 0 -- -- 81
2019-11-19 04:00:00 -3.2 2 Sudeste 13 Sur 0 -- -- 79
2019-11-19 03:00:00 -3.1 5 Sur 9 Sudeste 0 -- -- 81
2019-11-19 02:00:00 -2.8 0 Calma 9 Sudeste 0 -- -- 79
2019-11-19 01:00:00 -2.6 2 Sudeste 10 Sudeste 0 -- -- 79
2019-11-19 00:00:00 -2.4 0 Calma 8 Sur 0 -- -- 78
2019-11-18 23:00:00 -1.7 5 Noroeste 13 Sudoeste 0 -- -- 76
2019-11-18 22:00:00 -0.9 8 Sudoeste 18 Oeste 0 -- -- 73
2019-11-18 21:00:00 -1.1 6 Noroeste 18 Noroeste 0 -- -- 74
2019-11-18 20:00:00 -0.3 3 Noroeste 21 Sudoeste 0 -- -- 68
2019-11-18 19:00:00 0.1 6 Noroeste 26 Sudoeste 0 -- -- 63
2019-11-18 18:00:00 1.9 7 Oeste 56 Nordeste 0 -- -- 49
2019-11-18 17:00:00 2.6 23 Norte 60 Norte 0 -- -- 42
2019-11-18 16:00:00 4.3 13 Norte 32 Nordeste 0 -- -- 38
2019-11-18 15:00:00 4.7 19 Norte 41 Nordeste 0 -- -- 36
2019-11-18 14:00:00 4.9 13 Norte 40 Norte 0 -- -- 38
2019-11-18 13:00:00 4.2 9 Norte 56 Nordeste 0 -- -- 42
2019-11-18 12:00:00 3.6 10 Noroeste 41 Nordeste 0 -- -- 51
2019-11-18 11:00:00 3 7 Noroeste 24 Oeste 0 -- -- 79
2019-11-18 10:00:00 1.3 6 Noroeste 28 Oeste 0 -- -- 91
2019-11-18 09:00:00 -0.2 8 Oeste 24 Oeste 0 -- -- 91
2019-11-18 08:00:00 0 9 Noroeste 21 Noroeste 0 -- -- 91
2019-11-18 07:00:00 0.4 3 Sur 13 Noroeste 0 -- -- 91
2019-11-18 06:00:00 0.8 0 Calma 20 Noroeste 0 -- -- 91
2019-11-18 05:00:00 1.2 10 Noroeste 20 Noroeste 0 -- -- 91
2019-11-18 04:00:00 1.2 7 Noroeste 13 Noroeste 0 -- -- 91
2019-11-18 03:00:00 0.8 3 Norte 9 Nordeste 0.1 -- -- 91
2019-11-18 02:00:00 0.9 4 Nordeste 12 Nordeste 0.2 -- -- 91
2019-11-18 01:00:00 0.9 3 Nordeste 9 Nordeste 0.1 -- -- 91
2019-11-18 00:00:00 1 5 Sudeste 13 Nordeste 0 -- -- 91
2019-11-17 23:00:00 0.7 5 Nordeste 9 Nordeste 0.1 -- -- 91
2019-11-17 22:00:00 0.8 0 Calma 6 Nordeste 0 -- -- 91
2019-11-17 21:00:00 1.2 2 Sudeste 10 Nordeste 0 -- -- 91
2019-11-17 20:00:00 1 4 Nordeste 8 Nordeste 0 -- -- 91
2019-11-17 19:00:00 1.2 0 Calma 4 Nordeste 0 -- -- 91
2019-11-17 18:00:00 1.5 0 Calma 6 Norte 0 -- -- 91
2019-11-17 17:00:00 2.1 2 Nordeste 7 Sudeste 0 -- -- 91
2019-11-17 16:00:00 2.3 3 Sudeste 8 Sudeste 0.3 -- -- 91
2019-11-17 15:00:00 2.1 3 Sur 6 Sur 0.7 -- -- 91
2019-11-17 14:00:00 2.4 0 Calma 6 Sudeste 0.2 -- -- 91
2019-11-17 13:00:00 2.1 0 Calma 12 Noroeste 0.2 -- -- 91
2019-11-17 12:00:00 1.6 0 Calma 5 Este 0 -- -- 91
2019-11-17 11:00:00 1 4 Sudoeste 8 Sudoeste 0 -- -- 91
2019-11-17 10:00:00 0.4 2 Oeste 8 Oeste 0 -- -- 91
2019-11-17 09:00:00 0 3 Noroeste 10 Sudoeste 0 -- -- 90
2019-11-17 08:00:00 -0.7 3 Noroeste 9 Noroeste 0 -- -- 90
2019-11-17 07:00:00 -0.4 3 Sudoeste 9 Noroeste 0 -- -- 90
2019-11-17 06:00:00 -0.7 5 Oeste 9 Oeste 0 -- -- 91
2019-11-17 05:00:00 -0.9 0 Calma 17 Noroeste 0 -- -- 90
2019-11-17 04:00:00 -1 5 Noroeste 22 Noroeste 0 -- -- 91
2019-11-17 03:00:00 -0.8 10 Noroeste 26 Oeste 0 -- -- 91
2019-11-17 02:00:00 -0.8 10 Noroeste 24 Noroeste 0 -- -- 91
2019-11-17 01:00:00 -0.5 6 Noroeste 11 Oeste 0 -- -- 91
2019-11-17 00:00:00 -0.6 6 Noroeste 14 Noroeste 0 -- -- 91
2019-11-16 23:00:00 -0.7 7 Noroeste 15 Noroeste 0 -- -- 91
2019-11-16 22:00:00 -0.6 5 Noroeste 12 Noroeste 0 -- -- 90
2019-11-16 21:00:00 -0.5 4 Oeste 12 Noroeste 0.1 -- -- 90
2019-11-16 20:00:00 -0.5 4 Oeste 9 Oeste 0.6 -- -- 89
2019-11-16 19:00:00 -0.4 0 Calma 4 Oeste 0.7 -- -- 89
2019-11-16 18:00:00 -0.4 0 Calma 3 Oeste 0.5 -- -- 89
2019-11-16 17:00:00 -0.2 0 Calma 3 Oeste 1 -- -- 88
2019-11-16 16:00:00 -0.2 2 Sur 8 Sudeste 1.3 -- -- 88
2019-11-16 15:00:00 -0.2 3 Sudeste 9 Sudeste 1.7 -- -- 88
2019-11-16 14:00:00 -0.6 4 Sudeste 9 Sudeste 2.4 -- -- 87
2019-11-16 13:00:00 -0.8 4 Sudeste 12 Sudeste 0.6 -- -- 83
2019-11-16 12:00:00 -0.4 3 Sudeste 6 Sur 0 -- -- 83
2019-11-16 11:00:00 -1.1 4 Sudeste 11 Sudeste 0 -- -- 88
2019-11-16 10:00:00 -2.3 0 Calma 10 Nordeste 0 -- -- 89
2019-11-16 09:00:00 -3.6 4 Nordeste 14 Este 0 -- -- 89
2019-11-16 08:00:00 -3.5 4 Nordeste 12 Nordeste 0 -- -- 89
2019-11-16 07:00:00 -3.7 2 Nordeste 11 Nordeste 0 -- -- 89
2019-11-16 06:00:00 -3.8 0 Calma 7 Nordeste 0 -- -- 89
2019-11-16 05:00:00 -3.6 2 Nordeste 12 Nordeste 0 -- -- 89
2019-11-16 04:00:00 -3.4 2 Nordeste 16 Nordeste 0 -- -- 89
2019-11-16 03:00:00 -2.8 3 Norte 10 Nordeste 0 -- -- 89
2019-11-16 02:00:00 -2 5 Nordeste 8 Norte 0 -- -- 89
2019-11-16 01:00:00 -1.4 5 Nordeste 10 Norte 0 -- -- 89
2019-11-16 00:00:00 -0.8 2 Sur 13 Noroeste 0 -- -- 89
2019-11-15 23:00:00 -0.5 6 Noroeste 13 Noroeste 0 -- -- 89
2019-11-15 22:00:00 -0.6 2 Sur 16 Noroeste 0 -- -- 89
2019-11-15 21:00:00 -0.5 4 Oeste 21 Oeste 0 -- -- 89
2019-11-15 20:00:00 -0.4 6 Oeste 12 Oeste 0 -- -- 89
2019-11-15 19:00:00 -0.3 3 Norte 15 Oeste 0 -- -- 89
2019-11-15 18:00:00 0.1 10 Sudoeste 17 Sudoeste 0 -- -- 89
2019-11-15 17:00:00 0.7 4 Sudeste 20 Noroeste 0 -- -- 89
2019-11-15 16:00:00 0.2 6 Noroeste 15 Noroeste 0.1 -- -- 89
2019-11-15 15:00:00 0.1 10 Noroeste 18 Noroeste 0.4 -- -- 89
2019-11-15 14:00:00 0.5 0 Calma 4 Sur 1.4 -- -- 89
2019-11-15 13:00:00 0 0 Calma 6 Sur 4.7 -- -- 89
2019-11-15 12:00:00 -0.1 3 Sudeste 10 Sudeste 1.1 -- -- 88
2019-11-15 11:00:00 -0.2 2 Sur 8 Sur 0.6 -- -- 88
2019-11-15 10:00:00 -0.5 4 Sudeste 8 Sur 1.3 -- -- 87
2019-11-15 09:00:00 -0.5 4 Sudeste 10 Sudeste 0.4 -- -- 85
2019-11-15 08:00:00 -0.6 3 Nordeste 8 Sudeste 0 -- -- 85
2019-11-15 07:00:00 -0.7 4 Sudeste 9 Sudeste 0 -- -- 87
2019-11-15 06:00:00 -1 3 Nordeste 13 Norte 0 -- -- 88
2019-11-15 05:00:00 -1.3 3 Nordeste 10 Nordeste 0 -- -- 88
2019-11-15 04:00:00 -1.3 0 Calma 6 Nordeste 0 -- -- 88
2019-11-15 03:00:00 -2 0 Calma 5 Sudeste 0 -- -- 88
2019-11-15 02:00:00 -2.4 4 Nordeste 11 Nordeste 0 -- -- 88
2019-11-15 01:00:00 -2 5 Nordeste 15 Nordeste 0 -- -- 87
2019-11-15 00:00:00 -1.7 7 Nordeste 19 Nordeste 0 -- -- 87
2019-11-14 23:00:00 -1.4 12 Nordeste 22 Norte 0 -- -- 87
2019-11-14 22:00:00 -1 8 Nordeste 17 Nordeste 0 -- -- 85
2019-11-14 21:00:00 -0.9 6 Nordeste 18 Nordeste 0 -- -- 85
2019-11-14 20:00:00 -0.2 10 Nordeste 23 Nordeste 0 -- -- 83
2019-11-14 19:00:00 0.6 7 Nordeste 16 Nordeste 0 -- -- 78
2019-11-14 18:00:00 2 5 Nordeste 14 Oeste 0 -- -- 70
2019-11-14 17:00:00 2.6 7 Norte 19 Noroeste 0 -- -- 64
2019-11-14 16:00:00 4 9 Noroeste 27 Noroeste 0 -- -- 52
2019-11-14 15:00:00 5.1 9 Noroeste 32 Noroeste 0 -- -- 52
2019-11-14 14:00:00 4.2 14 Noroeste 37 Noroeste 0 -- -- 55
2019-11-14 13:00:00 4.6 12 Noroeste 30 Noroeste 0 -- -- 70
2019-11-14 12:00:00 2.9 9 Sudoeste 22 Sudoeste 0 -- -- 89
2019-11-14 11:00:00 1.5 4 Oeste 21 Oeste 0 -- -- 89
2019-11-14 10:00:00 1.1 3 Noroeste 18 Noroeste 0 -- -- 89
2019-11-14 09:00:00 1 8 Noroeste 24 Oeste 0.3 -- -- 89
2019-11-14 08:00:00 1.1 15 Noroeste 30 Noroeste 3 -- -- 89
2019-11-14 07:00:00 2.1 5 Norte 26 Norte 3.3 -- -- 88
2019-11-14 06:00:00 4.1 6 Nordeste 15 Nordeste 1.1 -- -- 88
2019-11-14 05:00:00 4.4 4 Este 13 Nordeste 2.2 -- -- 88
2019-11-14 04:00:00 4.2 9 Nordeste 20 Nordeste 1.8 -- -- 87
2019-11-14 03:00:00 4.7 0 Calma 12 Nordeste 0.3 -- -- 71
2019-11-14 02:00:00 4.9 3 Sur 11 Nordeste 0 -- -- 65
2019-11-14 01:00:00 4.5 3 Este 14 Nordeste 0 -- -- 65
2019-11-14 00:00:00 4.3 5 Nordeste 17 Sudeste 0 -- -- 65
2019-11-13 23:00:00 4.9 6 Sudeste 15 Sudeste 0 -- -- 61
2019-11-13 22:00:00 4.4 5 Sudeste 13 Nordeste 0 -- -- 65
2019-11-13 21:00:00 3.9 6 Nordeste 15 Nordeste 0 -- -- 64
2019-11-13 20:00:00 3.7 0 Calma 15 Noroeste 0 -- -- 64
2019-11-13 19:00:00 4.3 8 Noroeste 18 Noroeste 0 -- -- 59
2019-11-13 18:00:00 4.8 10 Noroeste 27 Noroeste 0 -- -- 55
2019-11-13 17:00:00 6.6 15 Noroeste 36 Oeste 0 -- -- 53
2019-11-13 16:00:00 7.8 12 Noroeste 37 Noroeste 0 -- -- 47
2019-11-13 15:00:00 9.2 13 Noroeste 39 Noroeste 0 -- -- 38
2019-11-13 14:00:00 9 16 Noroeste 41 Noroeste 0 -- -- 38
2019-11-13 13:00:00 9.7 15 Noroeste 33 Noroeste 0 -- -- 40
2019-11-13 12:00:00 9.8 8 Noroeste 19 Noroeste 0 -- -- 55
2019-11-13 11:00:00 6.6 4 Noroeste 11 Noroeste 0 -- -- 81
2019-11-13 10:00:00 4.8 0 Calma 6 Noroeste 0 -- -- 87
2019-11-13 09:00:00 4.1 2 Sudoeste 8 Sudoeste 0 -- -- 87
2019-11-13 08:00:00 3.3 2 Oeste 8 Sur 0 -- -- 85
2019-11-13 07:00:00 2.9 2 Sur 6 Nordeste 0 -- -- 85
2019-11-13 06:00:00 2.6 4 Nordeste 12 Nordeste 0 -- -- 85
2019-11-13 05:00:00 2.9 3 Nordeste 10 Nordeste 0 -- -- 83
2019-11-13 04:00:00 3.3 3 Este 16 Nordeste 0 -- -- 82
2019-11-13 03:00:00 3.4 8 Nordeste 17 Nordeste 0 -- -- 82
2019-11-13 02:00:00 3.9 0 Calma 8 Sudeste 0 -- -- 81
2019-11-13 01:00:00 4.6 3 Sur 8 Sudeste 0 -- -- 81
2019-11-13 00:00:00 4.7 2 Este 10 Noroeste 0 -- -- 81
2019-11-12 23:00:00 4.8 4 Oeste 21 Noroeste 0 -- -- 81
2019-11-12 22:00:00 5.2 6 Noroeste 21 Noroeste 0 -- -- 76
2019-11-12 21:00:00 4.4 0 Calma 11 Sudoeste 0 -- -- 78
2019-11-12 20:00:00 4.3 5 Sudoeste 17 Noroeste 0 -- -- 77
2019-11-12 19:00:00 4.7 8 Oeste 16 Oeste 0 -- -- 76
2019-11-12 18:00:00 5 5 Noroeste 30 Noroeste 0 -- -- 73
2019-11-12 17:00:00 6.4 14 Noroeste 35 Noroeste 0 -- -- 64
2019-11-12 16:00:00 7.9 14 Noroeste 33 Noroeste 0 -- -- 54
2019-11-12 15:00:00 8.6 13 Noroeste 38 Noroeste 0 -- -- 49
2019-11-12 14:00:00 9.3 15 Noroeste 34 Noroeste 0 -- -- 46
2019-11-12 13:00:00 9.1 10 Norte 33 Oeste 0 -- -- 46
2019-11-12 12:00:00 7.9 6 Norte 24 Sudoeste 0 -- -- 53
2019-11-12 11:00:00 7.2 5 Noroeste 15 Sudoeste 0 -- -- 65
2019-11-12 10:00:00 4.1 0 Calma 9 Noroeste 0 -- -- 85
2019-11-12 09:00:00 0.8 0 Calma 7 Sudeste 0 -- -- 87
2019-11-12 08:00:00 0.2 3 Sur 9 Sudeste 0 -- -- 86
2019-11-12 07:00:00 0.4 3 Sudoeste 9 Sudoeste 0 -- -- 85
2019-11-12 06:00:00 1.3 6 Sudoeste 15 Oeste 0 -- -- 85
2019-11-12 05:00:00 0.9 0 Calma 15 Oeste 0 -- -- 82
2019-11-12 04:00:00 0.8 4 Noroeste 21 Noroeste 0 -- -- 78
2019-11-12 03:00:00 1.5 8 Noroeste 25 Noroeste 0 -- -- 77
2019-11-12 02:00:00 1.2 13 Noroeste 24 Noroeste 0 -- -- 81
2019-11-12 01:00:00 1.2 0 Calma 26 Noroeste 0 -- -- 79
2019-11-12 00:00:00 1.9 10 Noroeste 21 Noroeste 0 -- -- 79